Time;durP1;ratioP1;P1;durP2;ratioP2;P2;SDS_P1;SDS_P2;PMS_P1;PMS_P2;Temp;Humidity;BMP_temperature;BMP_pressure;BME280_temperature;BME280_humidity;BME280_pressure;Samples;Min_cycle;Max_cycle;Signal;HPM_P1;HPM_P2
2023/04/03 00:01:35;;;;;;;5.13;3.53;;;;;;;2.72;100.00;102635.69;4938659;29;20103;-79
2023/04/03 00:04:00;;;;;;;6.25;3.50;;;;;;;2.74;100.00;102636.53;4937835;29;20400;-79
2023/04/03 00:06:27;;;;;;;6.57;4.03;;;;;;;2.48;100.00;102622.59;4921622;29;20040;-78
2023/04/03 00:08:52;;;;;;;9.77;4.38;;;;;;;2.49;100.00;102621.66;4922034;29;20476;-78
2023/04/03 00:11:19;;;;;;;8.85;4.53;;;;;;;2.58;100.00;102633.19;4910223;29;20071;-78
2023/04/03 00:13:45;;;;;;;11.10;4.32;;;;;;;2.57;100.00;102630.53;4929702;29;20122;-78
2023/04/03 00:16:11;;;;;;;7.45;4.22;;;;;;;2.58;100.00;102637.72;4946284;29;20436;-78
2023/04/03 00:18:38;;;;;;;7.57;4.55;;;;;;;2.50;100.00;102643.25;4948944;29;20039;-77
2023/04/03 00:21:04;;;;;;;9.73;4.20;;;;;;;2.27;100.00;102635.50;4922310;29;20127;-78
2023/04/03 00:23:30;;;;;;;7.40;4.63;;;;;;;2.36;100.00;102635.38;4951117;29;20046;-78
2023/04/03 00:25:57;;;;;;;8.70;4.82;;;;;;;2.37;100.00;102637.16;4953880;29;20040;-78
2023/04/03 00:28:23;;;;;;;9.73;4.75;;;;;;;2.29;100.00;102633.66;4916672;29;20072;-78
2023/04/03 00:30:50;;;;;;;8.73;4.97;;;;;;;2.45;100.00;102646.97;4941205;29;20467;-78
2023/04/03 00:33:15;;;;;;;5.85;4.38;;;;;;;2.50;100.00;102634.25;4921720;29;20154;-78
2023/04/03 00:35:41;;;;;;;7.63;4.82;;;;;;;2.42;100.00;102628.97;4936979;29;20181;-78
2023/04/03 00:38:10;;;;;;;8.68;4.90;;;;;;;2.48;100.00;102636.09;4921724;29;20038;-78
2023/04/03 00:40:41;;;;;;;4.93;4.00;;;;;;;2.35;100.00;102621.88;4928471;29;20067;-78
2023/04/03 00:43:18;;;;;;;7.28;4.80;;;;;;;2.47;100.00;102648.69;4955505;29;20095;-78
2023/04/03 00:45:47;;;;;;;8.13;4.32;;;;;;;2.46;100.00;102646.03;4906764;29;20047;-78
2023/04/03 00:48:18;;;;;;;8.07;4.93;;;;;;;2.45;100.00;102642.44;4921426;29;20040;-78
2023/04/03 00:50:45;;;;;;;9.30;5.10;;;;;;;2.39;100.00;102648.84;4937641;29;20380;-78
2023/04/03 00:53:18;;;;;;;8.50;5.45;;;;;;;2.41;100.00;102650.63;4937920;29;20172;-77
2023/04/03 00:55:46;;;;;;;11.60;5.82;;;;;;;2.44;100.00;102642.47;4952581;29;20032;-78
2023/04/03 00:58:12;;;;;;;8.73;5.63;;;;;;;2.34;100.00;102648.00;4951491;29;20375;-77
2023/04/03 01:00:42;;;;;;;6.75;4.55;;;;;;;2.29;100.00;102654.41;4920831;29;20476;-77
2023/04/03 01:03:07;;;;;;;7.55;4.40;;;;;;;2.19;100.00;102646.44;4929231;29;20032;-78
2023/04/03 01:05:33;;;;;;;11.60;4.45;;;;;;;2.18;100.00;102643.75;4951069;28;20036;-77
2023/04/03 01:07:59;;;;;;;6.72;4.90;;;;;;;2.05;100.00;102642.16;4920298;29;20050;-77
2023/04/03 01:10:25;;;;;;;8.32;4.68;;;;;;;2.08;100.00;102663.72;4952377;29;20039;-78
2023/04/03 01:12:51;;;;;;;6.90;4.18;;;;;;;2.16;100.00;102656.41;4920088;29;20134;-78
2023/04/03 01:15:21;;;;;;;7.25;4.38;;;;;;;2.21;100.00;102659.91;4903459;29;20067;-77
2023/04/03 01:17:52;;;;;;;8.45;4.47;;;;;;;2.15;100.00;102669.03;4937449;29;20185;-78
2023/04/03 01:20:23;;;;;;;12.45;5.03;;;;;;;2.20;100.00;102660.84;4902517;29;20051;-78
2023/04/03 01:23:13;;;;;;;6.65;4.63;;;;;;;2.14;100.00;102666.34;4936302;29;20115;-78
2023/04/03 01:25:52;;;;;;;6.57;5.03;;;;;;;2.04;100.00;102670.09;4907107;29;20031;-78
2023/04/03 01:28:22;;;;;;;6.18;4.47;;;;;;;2.12;100.00;102670.88;4920771;29;20039;-77
2023/04/03 01:31:00;;;;;;;7.45;4.78;;;;;;;2.00;100.00;102667.44;4951266;29;20028;-77
2023/04/03 01:33:25;;;;;;;8.55;5.25;;;;;;;2.12;100.00;102668.19;4937322;29;20032;-78
2023/04/03 01:35:51;;;;;;;8.80;5.30;;;;;;;1.96;100.00;102668.38;4947028;29;20047;-78
2023/04/03 01:38:16;;;;;;;10.93;5.38;;;;;;;2.11;100.00;102664.56;4915826;29;20036;-77
2023/04/03 01:40:42;;;;;;;12.77;5.65;;;;;;;2.07;100.00;102667.34;4901711;29;20040;-76
2023/04/03 01:43:08;;;;;;;7.82;5.40;;;;;;;2.13;100.00;102669.94;4926807;29;20042;-77
2023/04/03 01:45:33;;;;;;;15.85;6.03;;;;;;;2.21;100.00;102668.03;4924063;29;20035;-77
2023/04/03 01:47:59;;;;;;;7.32;5.32;;;;;;;2.14;100.00;102669.94;4935337;29;20048;-77
2023/04/03 01:50:24;;;;;;;11.23;5.15;;;;;;;1.91;100.00;102643.25;4918763;29;20038;-77
2023/04/03 01:52:50;;;;;;;11.25;5.85;;;;;;;1.96;100.00;102652.16;4950247;28;20047;-76
2023/04/03 01:55:15;;;;;;;9.50;5.50;;;;;;;1.83;100.00;102661.38;4950604;29;20074;-76
2023/04/03 01:57:41;;;;;;;10.20;5.40;;;;;;;1.84;100.00;102647.84;4901328;29;20111;-77
2023/04/03 02:00:07;;;;;;;8.38;5.53;;;;;;;1.95;100.00;102673.81;4905420;29;20035;-77
2023/04/03 02:02:33;;;;;;;9.75;5.57;;;;;;;2.00;100.00;102671.94;4936670;29;20512;-77
2023/04/03 02:04:58;;;;;;;12.63;5.25;;;;;;;1.80;100.00;102669.50;4950600;29;20175;-76
2023/04/03 02:07:24;;;;;;;7.13;5.18;;;;;;;1.72;100.00;102675.03;4935823;29;20546;-76
2023/04/03 02:09:49;;;;;;;11.55;5.72;;;;;;;1.65;100.00;102673.28;4949232;29;20074;-76
2023/04/03 02:12:15;;;;;;;11.20;5.93;;;;;;;1.62;100.00;102679.66;4918870;29;20032;-77
2023/04/03 02:14:41;;;;;;;11.13;5.75;;;;;;;1.70;100.00;102678.66;4922726;29;20039;-76
2023/04/03 02:17:08;;;;;;;11.18;5.70;;;;;;;1.69;100.00;102675.06;4939631;29;20035;-77
2023/04/03 02:19:35;;;;;;;9.55;6.03;;;;;;;1.81;100.00;102684.81;4920652;29;20054;-76
2023/04/03 02:22:01;;;;;;;10.80;5.68;;;;;;;1.70;100.00;102676.81;4934411;29;20043;-77
2023/04/03 02:24:27;;;;;;;8.15;5.85;;;;;;;1.79;100.00;102687.53;4934307;29;20032;-77
2023/04/03 02:26:53;;;;;;;8.73;5.88;;;;;;;1.71;100.00;102678.63;4949813;29;20051;-76
2023/04/03 02:29:18;;;;;;;7.82;5.93;;;;;;;1.83;100.00;102688.38;4918669;29;20488;-76
2023/04/03 02:31:44;;;;;;;9.63;6.18;;;;;;;1.89;100.00;102688.31;4934162;29;20547;-78
2023/04/03 02:34:09;;;;;;;11.20;5.90;;;;;;;1.82;100.00;102678.47;4919543;29;20049;-76
2023/04/03 02:36:34;;;;;;;11.30;5.68;;;;;;;1.88;100.00;102672.13;4910673;29;20047;-78
2023/04/03 02:39:03;;;;;;;7.05;5.18;;;;;;;1.77;100.00;102688.44;4920175;29;20047;-79
2023/04/03 02:41:34;;;;;;;11.75;5.53;;;;;;;1.78;100.00;102680.31;4903042;29;20054;-78
2023/04/03 02:44:04;;;;;;;9.70;6.07;;;;;;;1.71;100.00;102694.81;4919575;29;20043;-76
2023/04/03 02:46:30;;;;;;;7.57;5.18;;;;;;;1.58;100.00;102677.88;4918461;29;20047;-78
2023/04/03 02:48:55;;;;;;;6.65;5.18;;;;;;;1.69;100.00;102682.25;4949042;29;20411;-78
2023/04/03 02:51:22;;;;;;;7.57;5.57;;;;;;;1.61;100.00;102683.25;4919544;29;20483;-78
2023/04/03 02:53:48;;;;;;;8.05;5.85;;;;;;;1.60;100.00;102683.25;4918613;29;20036;-76
2023/04/03 02:56:13;;;;;;;11.95;5.47;;;;;;;1.67;100.00;102686.78;4933971;29;20094;-76
2023/04/03 02:58:39;;;;;;;9.20;5.95;;;;;;;1.68;100.00;102692.16;4936442;29;20047;-76
2023/04/03 03:01:04;;;;;;;11.32;5.78;;;;;;;1.71;100.00;102688.53;4923288;29;20028;-76
2023/04/03 03:03:30;;;;;;;14.77;5.50;;;;;;;1.63;100.00;102685.94;4948531;28;20059;-76
2023/04/03 03:06:10;;;;;;;15.90;6.30;;;;;;;1.61;100.00;102687.75;4950858;29;20047;-78
2023/04/03 03:08:36;;;;;;;10.60;4.80;;;;;;;1.66;100.00;102683.19;4903181;29;20032;-78
2023/04/03 03:11:02;;;;;;;7.10;4.65;;;;;;;1.62;100.00;102685.03;4933037;29;20036;-79
2023/04/03 03:13:28;;;;;;;8.48;5.20;;;;;;;1.67;100.00;102675.97;4935648;29;20063;-78
2023/04/03 03:15:53;;;;;;;11.23;4.70;;;;;;;1.79;100.00;102690.22;4934915;29;20156;-78
2023/04/03 03:18:18;;;;;;;7.03;4.03;;;;;;;1.65;100.00;102686.78;4950022;29;20118;-78
2023/04/03 03:20:44;;;;;;;7.78;4.68;;;;;;;1.52;100.00;102680.66;4923315;29;20031;-78
2023/04/03 03:23:10;;;;;;;11.43;4.20;;;;;;;1.65;100.00;102695.78;4926051;29;20066;-78
2023/04/03 03:25:40;;;;;;;6.93;4.30;;;;;;;1.72;100.00;102693.00;4903382;29;20035;-78
2023/04/03 03:28:06;;;;;;;7.13;3.85;;;;;;;1.64;100.00;102672.41;4936512;29;20035;-78
2023/04/03 03:30:31;;;;;;;7.07;3.90;;;;;;;1.68;100.00;102683.19;4929135;29;20050;-78
2023/04/03 03:32:57;;;;;;;10.68;4.13;;;;;;;1.75;100.00;102696.56;4923206;29;20031;-78
2023/04/03 03:35:22;;;;;;;7.90;3.50;;;;;;;1.61;100.00;102688.63;4908536;29;20043;-78
2023/04/03 03:37:48;;;;;;;6.47;3.72;;;;;;;1.61;100.00;102695.84;4922672;29;20375;-78
2023/04/03 03:40:13;;;;;;;9.98;4.15;;;;;;;1.59;100.00;102692.25;4906040;29;20083;-78
2023/04/03 03:42:39;;;;;;;9.43;3.83;;;;;;;1.69;100.00;102706.53;4938713;29;20496;-78
2023/04/03 03:45:05;;;;;;;10.48;3.65;;;;;;;1.58;100.00;102701.28;4938515;29;20028;-78
2023/04/03 03:47:31;;;;;;;6.43;2.80;;;;;;;1.55;100.00;102706.72;4939177;29;20078;-78
2023/04/03 03:49:56;;;;;;;12.10;3.58;;;;;;;1.57;100.00;102708.47;4922721;29;20039;-78
2023/04/03 03:52:22;;;;;;;7.00;3.22;;;;;;;1.46;100.00;102705.91;4922556;29;20044;-78
2023/04/03 03:54:47;;;;;;;8.38;3.20;;;;;;;1.45;100.00;102703.22;4906572;29;20034;-78
2023/04/03 03:57:12;;;;;;;4.63;3.10;;;;;;;1.50;100.00;102706.75;4935823;29;20036;-77
2023/04/03 03:59:40;;;;;;;8.25;2.70;;;;;;;1.33;100.00;102709.66;4938125;29;20039;-78
2023/04/03 04:02:05;;;;;;;6.07;2.90;;;;;;;1.31;100.00;102713.28;4908985;29;20452;-78
2023/04/03 04:04:30;;;;;;;11.38;2.78;;;;;;;1.22;100.00;102711.56;4931682;29;20074;-78
2023/04/03 04:06:56;;;;;;;4.82;2.65;;;;;;;1.10;100.00;102696.41;4921728;29;20126;-78
2023/04/03 04:09:21;;;;;;;4.47;2.40;;;;;;;1.17;100.00;102719.69;4921858;29;20039;-77
2023/04/03 04:11:47;;;;;;;5.60;2.38;;;;;;;1.19;100.00;102714.28;4932024;29;20130;-77
2023/04/03 04:14:13;;;;;;;6.93;2.80;;;;;;;1.20;100.00;102716.97;4935780;29;20491;-78
2023/04/03 04:16:38;;;;;;;9.45;2.53;;;;;;;1.21;100.00;102716.06;4951631;29;20164;-77
2023/04/03 04:19:04;;;;;;;8.20;2.45;;;;;;;1.21;100.00;102716.06;4928627;29;20140;-77
2023/04/03 04:21:29;;;;;;;5.95;2.55;;;;;;;1.13;100.00;102712.53;4925435;29;20027;-77
2023/04/03 04:23:55;;;;;;;6.80;2.85;;;;;;;1.26;100.00;102714.22;4894695;29;20036;-77
2023/04/03 04:26:20;;;;;;;6.22;2.70;;;;;;;1.21;100.00;102705.25;4904928;29;20054;-77
2023/04/03 04:28:46;;;;;;;10.00;3.05;;;;;;;1.26;100.00;102721.41;4940522;29;20063;-77
2023/04/03 04:31:11;;;;;;;4.75;2.75;;;;;;;1.01;100.00;102694.66;4935415;29;20122;-77
2023/04/03 04:33:37;;;;;;;4.20;2.95;;;;;;;1.18;100.00;102718.81;4952626;29;20045;-78
2023/04/03 04:36:02;;;;;;;8.93;2.65;;;;;;;1.40;100.00;102726.69;4904371;29;20040;-78
2023/04/03 04:38:28;;;;;;;11.18;3.17;;;;;;;1.52;100.00;102729.22;4938737;29;20051;-76
2023/04/03 04:40:53;;;;;;;4.10;2.70;;;;;;;1.55;100.00;102729.19;4917627;29;20042;-78
2023/04/03 04:43:19;;;;;;;6.60;2.95;;;;;;;1.43;100.00;102721.25;4953332;29;20459;-79
2023/04/03 04:45:44;;;;;;;7.70;2.90;;;;;;;1.46;100.00;102729.31;4919979;29;20055;-79
2023/04/03 04:48:10;;;;;;;4.75;2.47;;;;;;;1.51;100.00;102735.56;4904632;29;20059;-79
2023/04/03 04:50:35;;;;;;;5.43;2.45;;;;;;;1.50;100.00;102736.47;4936904;29;20036;-78
2023/04/03 04:53:01;;;;;;;5.43;2.22;;;;;;;1.50;100.00;102740.97;4952351;28;20080;-77
2023/04/03 04:55:26;;;;;;;4.63;2.30;;;;;;;1.32;100.00;102729.44;4904810;29;20103;-80
2023/04/03 04:57:52;;;;;;;3.83;2.33;;;;;;;1.37;100.00;102740.19;4908353;29;20052;-79
2023/04/03 05:00:18;;;;;;;6.20;2.30;;;;;;;1.28;100.00;102735.81;4917040;29;20489;-79
2023/04/03 05:02:43;;;;;;;6.72;2.35;;;;;;;1.24;100.00;102740.31;4923225;29;20427;-80
2023/04/03 05:05:09;;;;;;;9.05;2.60;;;;;;;1.17;100.00;102727.81;4920065;29;20055;-80
2023/04/03 05:07:35;;;;;;;5.65;2.22;;;;;;;1.27;100.00;102736.69;4937074;29;20039;-80
2023/04/03 05:10:02;;;;;;;8.73;2.42;;;;;;;1.13;100.00;102731.41;4941440;29;20403;-81
2023/04/03 05:12:28;;;;;;;9.82;2.38;;;;;;;1.24;100.00;102736.72;4937255;29;20028;-80
2023/04/03 05:14:54;;;;;;;3.42;1.95;;;;;;;1.26;100.00;102741.22;4921155;29;20076;-80
2023/04/03 05:17:19;;;;;;;5.28;2.60;;;;;;;1.20;100.00;102751.16;4949670;29;20066;-80
2023/04/03 05:19:45;;;;;;;3.22;1.88;;;;;;;1.28;100.00;102749.28;4919728;29;20043;-80
2023/04/03 05:22:10;;;;;;;8.98;2.15;;;;;;;1.26;100.00;102749.31;4936070;29;20058;-80
2023/04/03 05:24:36;;;;;;;10.10;2.22;;;;;;;1.25;100.00;102747.50;4951408;29;20040;-79
2023/04/03 05:27:01;;;;;;;9.05;2.45;;;;;;;1.26;100.00;102751.09;4903506;29;20050;-80
2023/04/03 05:29:27;;;;;;;4.43;2.10;;;;;;;1.27;100.00;102763.69;4905174;29;20040;-80
2023/04/03 05:31:52;;;;;;;5.00;1.98;;;;;;;1.27;100.00;102758.28;4946977;29;20032;-79
2023/04/03 05:34:18;;;;;;;3.53;1.95;;;;;;;1.35;100.00;102769.00;4916946;29;20046;-79
2023/04/03 05:36:44;;;;;;;6.82;2.13;;;;;;;1.37;100.00;102770.78;4937744;29;20035;-80
2023/04/03 05:39:09;;;;;;;8.07;2.00;;;;;;;1.14;100.00;102735.91;4952740;29;20050;-80
2023/04/03 05:41:35;;;;;;;5.70;2.22;;;;;;;1.28;100.00;102771.75;4952367;29;20039;-80
2023/04/03 05:44:00;;;;;;;7.22;1.67;;;;;;;1.31;100.00;102769.94;4935344;29;20095;-79
2023/04/03 05:46:26;;;;;;;6.70;1.70;;;;;;;1.36;100.00;102762.69;4946345;28;20035;-79
2023/04/03 05:48:52;;;;;;;4.63;1.90;;;;;;;1.44;100.00;102766.19;4936463;29;20044;-78
2023/04/03 05:51:28;;;;;;;9.27;2.05;;;;;;;1.45;100.00;102762.59;4934673;29;20035;-79
2023/04/03 05:54:02;;;;;;;5.00;1.65;;;;;;;1.57;100.00;102766.97;4949339;28;20036;-79
2023/04/03 05:56:28;;;;;;;4.45;2.08;;;;;;;1.74;100.00;102769.47;4944216;29;20110;-78
2023/04/03 05:58:53;;;;;;;3.88;1.80;;;;;;;1.86;100.00;102773.88;4940009;29;20127;-79
2023/04/03 06:01:19;;;;;;;4.78;2.50;;;;;;;2.04;100.00;102778.16;4920617;29;20039;-78
2023/04/03 06:03:44;;;;;;;6.80;1.70;;;;;;;2.06;100.00;102782.63;4905372;29;20043;-78
2023/04/03 06:06:14;;;;;;;6.40;1.30;;;;;;;2.37;100.00;102776.81;4937151;29;20043;-78
2023/04/03 06:08:39;;;;;;;4.07;1.42;;;;;;;2.42;100.00;102769.53;4925089;29;20070;-80
2023/04/03 06:11:05;;;;;;;3.55;1.60;;;;;;;2.61;100.00;102774.66;4950096;29;20040;-76
2023/04/03 06:13:31;;;;;;;5.15;1.85;;;;;;;2.82;100.00;102778.88;4945855;29;20039;-79
2023/04/03 06:15:57;;;;;;;6.38;1.42;;;;;;;3.00;100.00;102780.38;4949078;29;20040;-79
2023/04/03 06:18:22;;;;;;;5.53;1.85;;;;;;;3.24;100.00;102787.22;4937705;29;20036;-79
2023/04/03 06:20:47;;;;;;;4.45;1.50;;;;;;;3.23;100.00;102788.13;4885808;29;20036;-81
2023/04/03 06:23:13;;;;;;;3.80;1.60;;;;;;;3.58;100.00;102792.03;4931444;29;20051;-79
2023/04/03 06:25:38;;;;;;;10.70;1.85;;;;;;;3.77;100.00;102792.56;4916347;29;20111;-80
2023/04/03 06:28:04;;;;;;;5.80;2.03;;;;;;;4.03;100.00;102798.38;4916301;29;20035;-79
2023/04/03 06:30:30;;;;;;;5.93;1.45;;;;;;;4.21;100.00;102791.69;4936926;29;20039;-81
2023/04/03 06:32:55;;;;;;;11.27;1.60;;;;;;;4.16;100.00;102792.69;4919403;29;20058;-80
2023/04/03 06:35:23;;;;;;;4.65;1.38;;;;;;;4.15;100.00;102796.31;4905942;29;20051;-79
2023/04/03 06:37:49;;;;;;;7.28;1.75;;;;;;;4.37;100.00;102799.47;4912385;29;20435;-80
2023/04/03 06:40:21;;;;;;;5.18;1.70;;;;;;;4.77;100.00;102795.84;4920732;29;20079;-79
2023/04/03 06:42:47;;;;;;;7.07;1.27;;;;;;;4.77;100.00;102801.28;4917448;29;20126;-80
2023/04/03 06:45:13;;;;;;;2.47;1.33;;;;;;;4.93;100.00;102801.81;4929830;29;20122;-80
2023/04/03 06:47:39;;;;;;;5.55;1.45;;;;;;;5.25;100.00;102801.03;4907912;29;20121;-76
2023/04/03 06:50:06;;;;;;;6.47;1.90;;;;;;;5.10;100.00;102802.31;4942938;29;20040;-78
2023/04/03 06:52:32;;;;;;;9.02;1.42;;;;;;;5.02;100.00;102808.84;4904059;29;20381;-78
2023/04/03 06:54:59;;;;;;;8.30;1.40;;;;;;;5.44;100.00;102811.41;4934058;29;20054;-77
2023/04/03 06:57:25;;;;;;;6.13;1.60;;;;;;;5.17;100.00;102805.75;4949218;29;20118;-77
2023/04/03 06:59:51;;;;;;;3.35;1.45;;;;;;;5.22;100.00;102808.38;4938377;29;20077;-77
2023/04/03 07:02:16;;;;;;;4.93;1.58;;;;;;;5.30;100.00;102818.09;4937824;28;20047;-77
2023/04/03 07:04:42;;;;;;;3.90;1.48;;;;;;;5.22;100.00;102817.41;4940466;29;20091;-77
2023/04/03 07:07:08;;;;;;;5.57;1.65;;;;;;;5.44;100.00;102814.13;4910584;29;20039;-78
2023/04/03 07:09:33;;;;;;;7.18;1.73;;;;;;;5.48;100.00;102827.59;4923341;29;20036;-77
2023/04/03 07:11:59;;;;;;;6.40;1.73;;;;;;;5.65;100.00;102819.00;4927162;29;20538;-77
2023/04/03 07:14:24;;;;;;;4.85;1.33;;;;;;;5.52;100.00;102825.69;4932258;29;20039;-78
2023/04/03 07:16:50;;;;;;;4.75;1.23;;;;;;;5.86;100.00;102830.22;4921645;29;20388;-78
2023/04/03 07:19:17;;;;;;;5.95;2.15;;;;;;;6.02;100.00;102823.47;4906801;29;20179;-80
2023/04/03 07:21:43;;;;;;;7.40;1.58;;;;;;;5.75;100.00;102838.66;4907811;29;20032;-80
2023/04/03 07:24:09;;;;;;;4.70;1.35;;;;;;;5.32;100.00;102843.38;4922609;29;20174;-80
2023/04/03 07:26:35;;;;;;;8.23;1.60;;;;;;;5.77;100.00;102822.31;4924934;29;20035;-81
2023/04/03 07:29:03;;;;;;;9.05;1.50;;;;;;;5.84;100.00;102837.53;4957703;29;20641;-80
2023/04/03 07:31:29;;;;;;;6.85;1.55;;;;;;;5.85;100.00;102836.59;4913391;29;20048;-81
2023/04/03 07:33:54;;;;;;;8.65;1.70;;;;;;;5.76;100.00;102816.00;4939389;29;20496;-80
2023/04/03 07:36:22;;;;;;;8.20;1.67;;;;;;;5.60;100.00;102845.41;4906815;29;20447;-81
2023/04/03 07:38:48;;;;;;;4.25;1.50;;;;;;;5.85;100.00;102842.94;4939989;29;20036;-80
2023/04/03 07:41:15;;;;;;;7.75;1.40;;;;;;;6.57;100.00;102839.09;4954583;29;20051;-81
2023/04/03 07:43:42;;;;;;;12.27;1.52;;;;;;;6.42;100.00;102851.34;4939769;29;20035;-81
2023/04/03 07:46:11;;;;;;;9.63;1.35;;;;;;;6.45;100.00;102859.41;4939411;29;20043;-81
2023/04/03 07:48:37;;;;;;;4.75;1.40;;;;;;;6.41;100.00;102855.91;4922709;29;20039;-81
2023/04/03 07:51:04;;;;;;;3.97;1.45;;;;;;;6.55;100.00;102851.88;4923289;29;20058;-82
2023/04/03 07:53:30;;;;;;;6.93;1.42;;;;;;;6.57;100.00;102847.28;4940167;29;20035;-81
2023/04/03 07:55:57;;;;;;;8.27;1.52;;;;;;;7.01;100.00;102846.84;4936157;29;20090;-81
2023/04/03 07:58:22;;;;;;;4.30;1.10;;;;;;;7.60;100.00;102859.41;4945507;29;20039;-82
2023/04/03 08:00:48;;;;;;;3.30;1.20;;;;;;;7.18;100.00;102856.25;4922418;29;20044;-82
2023/04/03 08:03:16;;;;;;;5.05;1.15;;;;;;;7.99;100.00;102858.97;4922805;29;20098;-82
2023/04/03 08:05:43;;;;;;;4.13;1.00;;;;;;;8.05;92.45;102850.53;4938901;29;20031;-82
2023/04/03 08:08:11;;;;;;;5.03;1.58;;;;;;;8.25;88.07;102858.91;4940313;29;20038;-81
2023/04/03 08:10:40;;;;;;;6.78;1.38;;;;;;;8.10;87.29;102862.22;4923345;29;20035;-82
2023/04/03 08:13:06;;;;;;;4.93;1.30;;;;;;;8.40;87.48;102867.47;4906796;29;20031;-81
2023/04/03 08:15:31;;;;;;;6.25;1.38;;;;;;;8.14;86.99;102862.97;4920663;29;20095;-82
2023/04/03 08:17:58;;;;;;;3.05;1.02;;;;;;;8.48;78.48;102865.38;4938376;29;20390;-82
2023/04/03 08:20:24;;;;;;;3.92;0.90;;;;;;;8.94;72.65;102859.97;4921466;29;20036;-81
2023/04/03 08:22:50;;;;;;;5.68;1.48;;;;;;;8.56;73.62;102860.53;4922982;29;20038;-81
2023/04/03 08:25:17;;;;;;;4.28;1.05;;;;;;;9.00;73.63;102862.44;4922260;29;20036;-82
2023/04/03 08:27:42;;;;;;;5.80;1.65;;;;;;;8.59;69.88;102863.13;4906909;29;20035;-82
2023/04/03 08:30:08;;;;;;;5.43;1.00;;;;;;;8.57;69.02;102873.19;4938287;29;20040;-82
2023/04/03 08:32:35;;;;;;;3.88;0.93;;;;;;;8.26;69.88;102865.25;4922214;29;20043;-82
2023/04/03 08:35:01;;;;;;;2.20;0.80;;;;;;;8.21;72.87;102862.69;4926830;29;20035;-82
2023/04/03 08:37:27;;;;;;;6.15;1.30;;;;;;;8.56;68.56;102867.78;4909125;29;20138;-82
2023/04/03 08:39:53;;;;;;;5.32;1.17;;;;;;;9.26;68.89;102868.69;4940287;29;20083;-82
2023/04/03 08:42:27;;;;;;;1.85;0.80;;;;;;;9.43;67.69;102866.16;4922013;29;20126;-82
2023/04/03 08:45:13;;;;;;;5.97;1.20;;;;;;;9.79;67.13;102859.16;4921200;29;20039;-82
2023/04/03 08:47:44;;;;;;;4.38;1.20;;;;;;;9.19;61.36;102870.78;4921683;29;20047;-82
2023/04/03 08:50:23;;;;;;;1.48;0.70;;;;;;;8.90;59.82;102875.56;4953795;29;20031;-82
2023/04/03 08:52:53;;;;;;;2.90;1.10;;;;;;;9.29;63.81;102869.44;4922709;29;20031;-82
2023/04/03 08:55:40;;;;;;;3.08;0.93;;;;;;;9.52;60.81;102875.81;4938605;29;20071;-82
2023/04/03 08:58:11;;;;;;;2.67;0.90;;;;;;;9.16;57.42;102874.53;4921477;29;20028;-82
2023/04/03 09:00:58;;;;;;;5.78;1.10;;;;;;;9.18;53.49;102878.13;4920395;29;20030;-81
2023/04/03 09:03:23;;;;;;;3.08;1.02;;;;;;;9.60;57.67;102870.91;4938642;29;20483;-82
2023/04/03 09:06:02;;;;;;;6.25;0.80;;;;;;;10.29;52.55;102867.84;4937796;29;20119;-83
2023/04/03 09:08:36;;;;;;;4.78;0.90;;;;;;;9.61;53.37;102875.44;4938404;29;20071;-82
2023/04/03 09:11:10;;;;;;;9.88;1.00;;;;;;;9.57;54.13;102869.22;4938128;29;20036;-82
2023/04/03 09:13:50;;;;;;;1.98;0.80;;;;;;;10.02;50.68;102856.31;4921352;29;20126;-82
2023/04/03 09:16:36;;;;;;;4.10;0.93;;;;;;;9.95;52.43;102871.22;4905441;29;20551;-83
2023/04/03 09:19:41;;;;;;;1.58;0.85;;;;;;;10.17;49.47;102867.56;4943678;29;20391;-82
2023/04/03 09:22:39;;;;;;;3.50;0.70;;;;;;;9.96;49.76;102878.47;4939420;29;20118;-81
2023/04/03 09:25:15;;;;;;;2.83;0.93;;;;;;;10.15;48.43;102878.56;4906187;29;20048;-82
2023/04/03 09:27:41;;;;;;;2.42;0.70;;;;;;;10.37;47.22;102873.03;4920293;29;20507;-81
2023/04/03 09:30:17;;;;;;;7.20;1.00;;;;;;;10.65;46.45;102877.22;4920629;29;20055;-81
2023/04/03 09:32:45;;;;;;;3.70;0.77;;;;;;;10.22;42.53;102863.63;4920420;29;20395;-81
2023/04/03 09:35:19;;;;;;;5.45;0.70;;;;;;;10.25;44.51;102858.03;4936760;29;21481;-81
2023/04/03 09:37:47;;;;;;;1.98;0.80;;;;;;;10.66;40.52;102865.31;4936814;29;20472;-81
2023/04/03 09:40:25;;;;;;;1.27;0.60;;;;;;;10.89;39.67;102877.00;4935491;29;20091;-81
2023/04/03 09:42:56;;;;;;;1.02;0.60;;;;;;;9.96;42.06;102863.91;4936092;29;20087;-82
2023/04/03 09:45:31;;;;;;;4.18;0.70;;;;;;;10.82;41.13;102859.97;4920447;29;20039;-82
2023/04/03 09:48:13;;;;;;;1.17;0.70;;;;;;;9.90;43.80;102859.59;4920310;29;20114;-82
2023/04/03 09:51:03;;;;;;;2.30;0.68;;;;;;;9.78;42.84;102868.34;4937237;29;20395;-82
2023/04/03 09:53:43;;;;;;;0.77;0.65;;;;;;;10.52;41.81;102863.22;4951260;29;20054;-81
2023/04/03 09:56:21;;;;;;;1.90;0.50;;;;;;;10.68;39.68;102865.25;4937110;29;20043;-82
2023/04/03 09:58:59;;;;;;;2.97;0.68;;;;;;;10.00;42.52;102861.00;4951390;29;20050;-82
2023/04/03 10:01:27;;;;;;;2.97;0.63;;;;;;;10.20;40.67;102862.81;4938360;29;20389;-82
2023/04/03 10:04:06;;;;;;;2.00;0.57;;;;;;;10.55;40.55;102851.25;4901738;29;20036;-82
2023/04/03 10:06:37;;;;;;;1.23;0.57;;;;;;;10.62;39.88;102842.63;4914044;29;20046;-81
2023/04/03 10:09:06;;;;;;;1.08;0.40;;;;;;;9.84;39.49;102858.03;4934738;29;20098;-80
2023/04/03 10:11:31;;;;;;;0.98;0.50;;;;;;;11.03;39.57;102848.00;4950380;29;20067;-81
2023/04/03 10:13:59;;;;;;;1.27;0.60;;;;;;;10.57;39.82;102852.03;4920671;29;20118;-81
2023/04/03 10:16:59;;;;;;;2.78;0.85;;;;;;;10.45;37.77;102854.41;4951905;29;20491;-81
2023/04/03 10:19:34;;;;;;;1.33;0.60;;;;;;;10.23;38.22;102857.22;4937820;29;20034;-81
2023/04/03 10:22:18;;;;;;;2.00;0.60;;;;;;;11.09;39.54;102837.69;4917877;29;20040;-81
2023/04/03 10:25:13;;;;;;;1.67;0.57;;;;;;;10.43;40.41;102839.00;4901141;29;20032;-80
2023/04/03 10:27:48;;;;;;;3.45;0.50;;;;;;;11.19;38.57;102834.41;4904429;29;20082;-81
2023/04/03 10:30:29;;;;;;;7.97;0.70;;;;;;;10.95;40.13;102832.88;4919793;29;20043;-82
2023/04/03 10:33:11;;;;;;;4.47;0.50;;;;;;;11.44;35.52;102835.03;4936570;29;20058;-81
2023/04/03 10:35:39;;;;;;;2.88;0.47;;;;;;;11.36;36.06;102818.94;4923248;29;20067;-80
2023/04/03 10:38:26;;;;;;;0.60;0.50;;;;;;;10.67;33.75;102828.72;4936272;29;20162;-80
2023/04/03 10:41:16;;;;;;;1.92;0.57;;;;;;;10.76;36.72;102810.97;4919274;29;20043;-80
2023/04/03 10:43:55;;;;;;;1.42;0.60;;;;;;;10.44;36.42;102814.25;4926810;29;20110;-80
2023/04/03 10:46:30;;;;;;;2.03;0.60;;;;;;;10.43;37.47;102815.25;4935957;29;20123;-80
2023/04/03 10:49:21;;;;;;;4.22;0.60;;;;;;;10.57;36.45;102811.84;4935378;29;20027;-80
2023/04/03 10:51:48;;;;;;;2.65;0.60;;;;;;;10.67;36.45;102815.03;4928083;29;20503;-81
2023/04/03 10:54:31;;;;;;;2.03;0.52;;;;;;;10.39;37.73;102796.28;4936317;29;20039;-80
2023/04/03 10:57:02;;;;;;;5.47;0.55;;;;;;;10.74;36.62;102808.31;4936186;29;20040;-79
2023/04/03 10:59:35;;;;;;;2.03;0.77;;;;;;;10.24;36.20;102795.13;4950170;29;20040;-80
2023/04/03 11:02:15;;;;;;;1.48;0.50;;;;;;;10.71;38.37;102802.06;4917025;29;20383;-79
2023/04/03 11:04:44;;;;;;;1.08;0.50;;;;;;;10.69;38.84;102804.00;4917672;29;20035;-80
2023/04/03 11:07:17;;;;;;;2.15;0.60;;;;;;;10.97;38.11;102777.03;4933984;29;20038;-79
2023/04/03 11:09:45;;;;;;;;;;;;;;;10.54;38.57;102778.22;4918846;29;20092;-80
2023/04/03 11:12:16;;;;;;;1.13;0.50;;;;;;;10.60;40.17;102772.47;4942916;28;19915;-79
2023/04/03 11:14:43;;;;;;;2.25;0.52;;;;;;;11.04;38.41;102774.88;4918057;29;20042;-79
2023/04/03 11:17:30;;;;;;;2.65;0.85;;;;;;;10.02;37.44;102789.72;4946823;29;20038;-78
2023/04/03 11:20:07;;;;;;;2.17;0.65;;;;;;;10.11;38.39;102792.94;4910865;29;20047;-79
2023/04/03 11:22:43;;;;;;;2.22;0.70;;;;;;;10.63;41.05;102778.69;4914264;29;20099;-78
2023/04/03 11:25:19;;;;;;;2.15;0.60;;;;;;;10.31;36.58;102782.91;4917995;29;20510;-78
2023/04/03 11:28:01;;;;;;;3.03;0.60;;;;;;;10.26;36.50;102774.94;4918598;29;20035;-78
2023/04/03 11:30:34;;;;;;;1.70;0.70;;;;;;;10.23;38.14;102779.66;4935108;29;20118;-78
2023/04/03 11:33:15;;;;;;;2.95;0.70;;;;;;;10.25;35.98;102777.75;4920187;29;20032;-78